createdAt,value
2023-05-22T00:02:14.400Z,100524.95122065952
2023-05-22T00:05:12.009Z,100519.78437337677
2023-05-22T00:08:11.528Z,100522.15769599391
2023-05-22T00:11:07.053Z,100525.2120244384
2023-05-22T00:14:03.654Z,100525.6203432019
2023-05-22T00:17:00.308Z,100531.38346416826
2023-05-22T00:19:55.759Z,100529.67996393717
2023-05-22T00:22:51.334Z,100533.53911623309
2023-05-22T00:25:50.870Z,100525.4263793626
2023-05-22T00:28:46.426Z,100534.32558062352
2023-05-22T00:31:41.990Z,100533.39554410503
2023-05-22T00:34:37.615Z,100533.91047765611
2023-05-22T00:37:33.123Z,100536.97509254121
2023-05-22T00:40:28.704Z,100539.83612332545
2023-05-22T00:43:24.260Z,100541.77507696926
2023-05-22T00:46:20.880Z,100545.89190553826
2023-05-22T00:49:16.352Z,100533.36368001658
2023-05-22T00:52:12.930Z,100539.18760220504
2023-05-22T00:55:09.474Z,100523.96670725098
2023-05-22T00:58:07.040Z,100533.80960772118
2023-05-22T01:01:07.649Z,100529.34497416147
2023-05-22T01:04:05.243Z,100529.4171798165
2023-05-22T01:07:05.693Z,100536.5251299011
2023-05-22T01:10:01.285Z,100530.60402183524
2023-05-22T01:13:01.809Z,100528.77046403599
2023-05-22T01:16:06.366Z,100533.23076576278
2023-05-22T01:19:11.879Z,100542.21135201461
2023-05-22T01:22:17.394Z,100545.20645890715
2023-05-22T01:25:34.972Z,100543.05164884667
2023-05-22T01:28:47.425Z,100547.21142786596
2023-05-22T01:31:46.972Z,100550.24115466488
2023-05-22T01:34:45.540Z,100546.79123731564
2023-05-22T01:37:42.154Z,100539.17163280754
2023-05-22T01:40:39.840Z,100534.48469100006
2023-05-22T01:43:36.190Z,100540.98713090082
2023-05-22T01:46:33.771Z,100542.34089127698
2023-05-22T01:49:31.331Z,100541.24548257123
2023-05-22T01:52:36.888Z,100540.25465895579
2023-05-22T01:55:42.453Z,100535.3137069699
2023-05-22T01:58:47.926Z,100540.96436957463
2023-05-22T02:01:44.649Z,100542.28070593557
2023-05-22T02:04:44.089Z,100534.16108078128
2023-05-22T02:07:42.628Z,100534.62399187325
2023-05-22T02:10:42.193Z,100533.14612875796
2023-05-22T02:13:37.745Z,100531.31083885452
2023-05-22T02:16:37.275Z,100527.06962154116
2023-05-22T02:19:38.831Z,100521.19723867606
2023-05-22T02:22:34.391Z,100510.08225256245
2023-05-22T02:25:34.936Z,100507.02592971825
2023-05-22T02:28:31.504Z,100501.59433732671
2023-05-22T02:31:28.106Z,100503.78838602395
2023-05-22T02:34:23.613Z,100503.48326243916
2023-05-22T02:37:19.138Z,100501.14439050255
2023-05-22T02:40:15.836Z,100495.11209805668
2023-05-22T02:43:11.275Z,100493.5500466131
2023-05-22T02:46:06.862Z,100494.52663261771
2023-05-22T02:49:02.419Z,100495.65080026923
2023-05-22T02:51:57.979Z,100498.8670258964
2023-05-22T02:54:53.527Z,100493.87971949237
2023-05-22T02:57:49.109Z,100492.95802289541
2023-05-22T03:00:44.619Z,100493.29845061195
2023-05-22T03:03:41.379Z,100493.92913662124
2023-05-22T03:06:37.800Z,100499.31503052074
2023-05-22T03:09:35.347Z,100518.63757479383
2023-05-22T03:12:30.898Z,100511.99221883307
2023-05-22T03:15:26.416Z,100519.51008118574
2023-05-22T03:18:26.702Z,100526.2071190075
2023-05-22T03:21:22.557Z,100509.16549647663
2023-05-22T03:24:19.097Z,100505.09376651846
2023-05-22T03:27:16.671Z,100511.34368366048
2023-05-22T03:30:13.237Z,100508.71337796716
2023-05-22T03:33:11.917Z,100511.81434343584
2023-05-22T03:36:09.357Z,100513.65035270333
2023-05-22T03:39:04.978Z,100515.62961687616
2023-05-22T03:42:00.496Z,100505.77187431604
2023-05-22T03:44:56.016Z,100510.49439018083
2023-05-22T03:47:51.634Z,100519.75071480242
2023-05-22T03:50:48.143Z,100521.23484526502
2023-05-22T03:53:43.736Z,100520.17011482042
2023-05-22T03:56:39.290Z,100527.21771867851
2023-05-22T03:59:34.839Z,100529.286941884
2023-05-22T04:02:32.573Z,100523.10459587608
2023-05-22T04:05:28.079Z,100525.09139808587
2023-05-22T04:08:23.548Z,100516.12735386839
2023-05-22T04:11:22.088Z,100524.4690720597
2023-05-22T04:14:17.602Z,100521.21568135968
2023-05-22T04:17:13.199Z,100524.72021538063
2023-05-22T04:20:09.744Z,100531.75458217155
2023-05-22T04:23:07.329Z,100524.22312376492
2023-05-22T04:26:03.084Z,100524.29303831485
2023-05-22T04:28:58.449Z,100519.42314951976
2023-05-22T04:31:55.985Z,100521.58355490852
2023-05-22T04:34:53.538Z,100523.93553329003
2023-05-22T04:37:50.098Z,100526.92998413439
2023-05-22T04:40:47.677Z,100528.85041832646
2023-05-22T04:43:44.278Z,100536.52123200631
2023-05-22T04:46:39.806Z,100529.6691456119
2023-05-22T04:49:36.358Z,100528.22952504184
2023-05-22T04:52:36.907Z,100523.39521597231
2023-05-22T04:55:33.438Z,100523.61802214281
2023-05-22T04:58:29.037Z,100526.58516798119
2023-05-22T05:01:33.031Z,100522.5115539342
2023-05-22T05:04:29.091Z,100518.37114916844
2023-05-22T05:07:24.675Z,100532.57280384468
2023-05-22T05:10:20.237Z,100527.41296780136
2023-05-22T05:13:15.800Z,100530.70345476027
2023-05-22T05:16:18.414Z,100531.36863346535
2023-05-22T05:19:14.965Z,100539.35734295344
2023-05-22T05:22:10.501Z,100536.8697661778
2023-05-22T05:25:07.493Z,100545.60407267291
2023-05-22T05:28:11.599Z,100546.90949053109
2023-05-22T05:31:07.128Z,100546.25674846613
2023-05-22T05:34:02.733Z,100547.92134306474
2023-05-22T05:36:59.298Z,100558.41303163714
2023-05-22T05:40:12.834Z,100560.173854109
2023-05-22T05:43:17.339Z,100560.61387341672
2023-05-22T05:46:13.193Z,100560.661970231
2023-05-22T05:49:09.433Z,100566.64189161782
2023-05-22T05:52:05.994Z,100574.57793343901
2023-05-22T05:55:02.540Z,100566.61812197097
2023-05-22T05:57:58.074Z,100572.4539630815
2023-05-22T06:00:55.676Z,100566.64750557857
2023-05-22T06:03:51.468Z,100568.46031723903
2023-05-22T06:06:47.758Z,100579.63060768756
2023-05-22T06:09:43.341Z,100576.58039496299
2023-05-22T06:12:44.862Z,100579.94722237249
2023-05-22T06:15:41.474Z,100582.85010090131
2023-05-22T06:18:37.022Z,100590.10023955649
2023-05-22T06:21:32.542Z,100591.99007476824
2023-05-22T06:24:30.132Z,100591.38260949287
2023-05-22T06:27:27.721Z,100591.53638806191
2023-05-22T06:30:38.802Z,100590.26337821585
2023-05-22T06:33:23.846Z,100582.95876446336
2023-05-22T06:36:19.349Z,100584.87372312398
2023-05-22T06:39:16.275Z,100583.23986875797
2023-05-22T06:42:11.498Z,100584.8593418217
2023-05-22T06:45:08.049Z,100586.00002625381
2023-05-22T06:48:04.680Z,100585.34025376258
2023-05-22T06:51:00.126Z,100589.02424081454
2023-05-22T06:53:56.731Z,100590.48406975719
2023-05-22T06:56:54.281Z,100589.02424081454
2023-05-22T06:59:50.858Z,100594.4779558152
2023-05-22T07:02:46.490Z,100588.97235855165
2023-05-22T07:05:41.983Z,100592.1108421364
2023-05-22T07:08:37.524Z,100588.20838044857
2023-05-22T07:11:36.083Z,100591.2460146935
2023-05-22T07:14:33.633Z,100594.88392190925
2023-05-22T07:17:29.218Z,100588.63083303465
2023-05-22T07:20:26.107Z,100586.57943526919
2023-05-22T07:23:23.347Z,100586.7444937774
2023-05-22T07:26:21.877Z,100583.93529797102
2023-05-22T07:29:17.408Z,100586.99795894937
2023-05-22T07:32:14.982Z,100582.30936910762
2023-05-22T07:35:10.537Z,100581.01823906269
2023-05-22T07:38:07.083Z,100576.90416269966
2023-05-22T07:41:04.681Z,100582.77048772763
2023-05-22T07:44:00.239Z,100580.88755227438
2023-05-22T07:46:55.783Z,100586.43134769613
2023-05-22T07:49:53.348Z,100583.70173056259
2023-05-22T07:52:48.924Z,100582.87479872105
2023-05-22T07:55:44.445Z,100576.7835839911
2023-05-22T07:58:44.037Z,100577.98604871535
2023-05-22T08:01:41.617Z,100576.76232802775
2023-05-22T08:04:38.308Z,100581.22728680495
2023-05-22T08:07:34.000Z,100582.53726233875
2023-05-22T08:10:37.301Z,100582.1493064492
2023-05-22T08:13:33.798Z,100580.29317607355
2023-05-22T08:16:30.381Z,100573.17958665715
2023-05-22T08:19:26.006Z,100569.8845295854
2023-05-22T08:22:21.481Z,100570.5063662108
2023-05-22T08:25:17.015Z,100569.90576782102
2023-05-22T08:28:12.584Z,100569.95373958883
2023-05-22T08:31:09.181Z,100573.04045519326
2023-05-22T08:34:05.687Z,100577.5008788937
2023-05-22T08:37:05.248Z,100577.91761598841
2023-05-22T08:40:00.847Z,100573.04477309731
2023-05-22T08:42:57.395Z,100568.9071008941
2023-05-22T08:45:57.906Z,100572.15233703869
2023-05-22T08:48:56.645Z,100569.18310197203
2023-05-22T08:52:03.025Z,100562.33050940951
2023-05-22T08:55:02.595Z,100566.97163157184
2023-05-22T08:57:59.129Z,100559.71970868895
2023-05-22T09:00:55.703Z,100557.8165731602
2023-05-22T09:03:54.292Z,100561.44827013003
2023-05-22T09:06:50.867Z,100560.1558819459
2023-05-22T09:09:47.367Z,100566.29303724054
2023-05-22T09:12:47.900Z,100565.86308364438
2023-05-22T09:15:45.452Z,100571.21351083707
2023-05-22T09:18:42.066Z,100562.88159460749
2023-05-22T09:21:39.578Z,100558.95840151742
2023-05-22T09:24:38.190Z,100557.14476632085
2023-05-22T09:27:34.708Z,100552.79073518809
2023-05-22T09:30:34.245Z,100555.44520378408
2023-05-22T09:33:30.813Z,100556.86505770763
2023-05-22T09:36:32.355Z,100548.53251891371
2023-05-22T09:39:34.897Z,100550.2720510445
2023-05-22T09:42:33.446Z,100552.88829270698
2023-05-22T09:45:35.996Z,100553.36053156765
2023-05-22T09:48:33.549Z,100552.92477405632
2023-05-22T09:51:32.111Z,100551.15499308154
2023-05-22T09:54:34.650Z,100548.96390789858
2023-05-22T09:57:33.202Z,100545.8901622101
2023-05-22T10:00:33.741Z,100546.62094346706
2023-05-22T10:03:36.398Z,100544.10268835776
2023-05-22T10:06:34.914Z,100540.9524713908
2023-05-22T10:09:40.417Z,100544.23947811306
2023-05-22T10:12:41.958Z,100548.43425542634
2023-05-22T10:15:39.525Z,100541.89959671823
2023-05-22T10:18:37.087Z,100547.9077399254
2023-05-22T10:21:36.618Z,100542.61925793876
2023-05-22T10:24:34.204Z,100548.32291738063
2023-05-22T10:27:31.769Z,100544.9281298399
2023-05-22T10:30:35.288Z,100541.46422754333
2023-05-22T10:33:38.841Z,100538.70765490363
2023-05-22T10:36:43.695Z,100532.51999103681
2023-05-22T10:39:51.887Z,100523.42617541386
2023-05-22T10:42:48.469Z,100515.73980758245
2023-05-22T10:45:47.032Z,100512.42208195907
2023-05-22T10:48:45.588Z,100510.03202179329
2023-05-22T10:51:41.093Z,100509.5306556648
2023-05-22T10:54:40.658Z,100512.69640129586
2023-05-22T10:57:42.207Z,100506.7737892457
2023-05-22T11:00:40.976Z,100501.66514555007
2023-05-22T11:03:45.352Z,100493.42322377121
2023-05-22T11:06:46.892Z,100490.00695013194
2023-05-22T11:09:49.399Z,100488.8579909759
2023-05-22T11:12:47.966Z,100487.60071705685
2023-05-22T11:15:45.544Z,100478.94765514655
2023-05-22T11:18:41.075Z,100476.52017143884
2023-05-22T11:21:42.601Z,100473.45925928916
2023-05-22T11:24:41.173Z,100471.30261547025
2023-05-22T11:27:39.742Z,100466.9893009421
2023-05-22T11:30:37.456Z,100463.67847402721
2023-05-22T11:33:33.845Z,100456.01507146786
2023-05-22T11:36:31.401Z,100464.07325848665
2023-05-22T11:39:31.925Z,100455.19893649181
2023-05-22T11:42:27.519Z,100455.5736126307
2023-05-22T11:45:23.085Z,100448.6341628078
2023-05-22T11:48:20.632Z,100453.39486966764
2023-05-22T11:51:19.215Z,100445.03047858564
2023-05-22T11:54:17.716Z,100449.40124226705
2023-05-22T11:57:14.301Z,100445.04959112292
2023-05-22T12:00:11.923Z,100446.44926626023
2023-05-22T12:03:08.584Z,100445.87117324138
2023-05-22T12:06:06.006Z,100440.06325804908
2023-05-22T12:09:03.516Z,100444.08133209933
2023-05-22T12:12:00.260Z,100439.64661960302
2023-05-22T12:14:57.626Z,100434.04276337771
2023-05-22T12:17:55.170Z,100435.3691298991
2023-05-22T12:20:51.760Z,100438.73070346932
2023-05-22T12:26:59.314Z,100423.41195471465
2023-05-22T12:29:56.370Z,100413.99280932985
2023-05-22T12:32:53.017Z,100416.24336254313
2023-05-22T12:35:51.507Z,100412.8261962994
2023-05-22T12:38:47.050Z,100410.78717196787
2023-05-22T12:41:44.626Z,100414.71923010823
2023-05-22T12:44:41.181Z,100408.11788155102
2023-05-22T12:47:36.801Z,100405.53572812463
2023-05-22T12:50:32.284Z,100408.91534118539
2023-05-22T12:53:27.846Z,100404.65327446494
2023-05-22T12:56:23.419Z,100406.20681743373
2023-05-22T12:59:20.753Z,100397.72509657101
2023-05-22T13:02:16.510Z,100397.5042796603
2023-05-22T13:05:12.123Z,100388.8786930981
2023-05-22T13:08:08.672Z,100394.86543966529
2023-05-22T13:11:04.253Z,100386.38887078705
2023-05-22T13:14:00.777Z,100387.92792579983
2023-05-22T13:16:56.336Z,100379.50682400107
2023-05-22T13:19:51.882Z,100376.11422913228
2023-05-22T13:22:47.488Z,100374.85734859284
2023-05-22T13:25:44.969Z,100366.11859657028
2023-05-22T13:28:40.539Z,100370.39735506744
2023-05-22T13:31:37.359Z,100363.03014481321
2023-05-22T13:34:32.742Z,100369.81605591327
2023-05-22T13:37:28.268Z,100368.82919555758
2023-05-22T13:40:25.833Z,100367.2095615495
2023-05-22T13:43:22.392Z,100359.70819702659
2023-05-22T13:46:21.041Z,100363.60218420225
2023-05-22T13:49:16.536Z,100364.17018415131
2023-05-22T13:52:12.092Z,100356.20116477262
2023-05-22T13:55:08.636Z,100347.02922125472
2023-05-22T13:58:04.196Z,100346.2993566019
2023-05-22T14:00:59.771Z,100341.788309111
2023-05-22T14:03:56.307Z,100346.84543343427
2023-05-22T14:06:51.853Z,100343.28605112583
2023-05-22T14:09:47.441Z,100340.84505309344
2023-05-22T14:12:42.973Z,100335.26721780382
2023-05-22T14:15:39.725Z,100323.16514122643
2023-05-22T14:18:35.124Z,100326.29857063542
2023-05-22T14:21:32.647Z,100328.06837170299
2023-05-22T14:24:28.242Z,100321.8659519186
2023-05-22T14:27:25.758Z,100318.5303214632
2023-05-22T14:30:21.326Z,100314.89002936368
2023-05-22T14:33:17.922Z,100306.49131491911
2023-05-22T14:36:13.476Z,100307.45625443969
2023-05-22T14:39:09.007Z,100301.58214271918
2023-05-22T14:42:05.542Z,100302.65861081227
2023-05-22T14:45:02.153Z,100304.37383929186
2023-05-22T14:47:57.731Z,100297.8233902937
2023-05-22T14:50:53.312Z,100295.45764629371
2023-05-22T14:53:48.833Z,100293.61496403729
2023-05-22T14:56:45.381Z,100296.46697419893
2023-05-22T14:59:42.957Z,100302.91948443564
2023-05-22T15:02:39.572Z,100310.80359032263
2023-05-22T15:05:36.070Z,100310.85064048284
2023-05-22T15:08:31.620Z,100317.93263012722
2023-05-22T15:11:27.248Z,100317.05834291942
2023-05-22T15:14:23.762Z,100324.98019683636
2023-05-22T15:17:20.280Z,100316.40303617455
2023-05-22T15:20:16.848Z,100309.94096409819
2023-05-22T15:23:12.393Z,100309.0646974699
2023-05-22T15:26:08.024Z,100307.78324853998
2023-05-22T15:29:03.527Z,100320.31634425042
2023-05-22T15:32:00.194Z,100318.83518635512
2023-05-22T15:34:55.679Z,100319.17392076328
2023-05-22T15:37:51.227Z,100309.20371011627
2023-05-22T15:40:49.760Z,100330.72042944744
2023-05-22T15:43:46.352Z,100334.96782332273
2023-05-22T15:46:43.895Z,100324.99196339086
2023-05-22T15:49:39.496Z,100328.75249196759
2023-05-22T15:52:36.019Z,100316.23278468693
2023-05-22T15:55:33.593Z,100312.95121062583
2023-05-22T15:58:30.172Z,100309.26527360502
2023-05-22T16:01:28.767Z,100301.12940455887
2023-05-22T16:04:24.278Z,100303.69690284168
2023-05-22T16:07:20.791Z,100304.27920339446
2023-05-22T16:10:16.375Z,100304.1679512653
2023-05-22T16:13:12.929Z,100304.56881152313
2023-05-22T16:16:10.500Z,100311.30436967552
2023-05-22T16:19:06.094Z,100311.30849716233
2023-05-22T16:22:02.609Z,100314.28584787824
2023-05-22T16:24:58.186Z,100315.7034975167
2023-05-22T16:27:53.772Z,100304.54325202946
2023-05-22T16:30:49.283Z,100301.50169857014
2023-05-22T16:33:44.845Z,100293.72676496021
2023-05-22T16:36:40.404Z,100294.95785215661
2023-05-22T16:39:35.958Z,100288.0082507611
2023-05-22T16:42:31.557Z,100285.79076868604
2023-05-22T16:45:27.126Z,100289.72866431344
2023-05-22T16:48:22.729Z,100287.89324664419
2023-05-22T16:51:18.234Z,100292.24175354885
2023-05-22T16:54:13.773Z,100296.64989991499
2023-05-22T16:57:09.338Z,100286.26128130111
2023-05-22T17:00:06.887Z,100292.92063650754
2023-05-22T17:03:02.525Z,100284.621295246
2023-05-22T17:05:58.038Z,100294.40067014135
2023-05-22T17:08:53.614Z,100309.60534695718
2023-05-22T17:11:49.159Z,100328.81172412026
2023-05-22T17:14:44.742Z,100330.0671621782
2023-05-22T17:17:40.274Z,100332.7184723786
2023-05-22T17:20:38.836Z,100336.26941239851
2023-05-22T17:23:38.379Z,100337.93482425848
2023-05-22T17:26:34.947Z,100341.1210378649
2023-05-22T17:29:30.501Z,100335.84366314285
2023-05-22T17:32:26.132Z,100357.04714978073
2023-05-22T17:35:21.627Z,100367.70678635605
2023-05-22T17:38:17.222Z,100390.87545692301
2023-05-22T17:41:12.752Z,100410.32124925827
2023-05-22T17:44:09.305Z,100413.94152987319
2023-05-22T17:47:05.914Z,100412.74619584148
2023-05-22T17:50:01.438Z,100417.11408168539
2023-05-22T17:52:57.007Z,100415.69109898586
2023-05-22T17:55:52.683Z,100418.32183315259
2023-05-22T17:58:49.115Z,100421.01898191203
2023-05-22T18:01:45.732Z,100422.0436745874
2023-05-22T18:04:42.208Z,100417.20555030533
2023-05-22T18:07:37.779Z,100414.96099759387
2023-05-22T18:10:34.386Z,100435.93944797025
2023-05-22T18:13:29.935Z,100433.46446183797
2023-05-22T18:16:26.582Z,100437.261792918
2023-05-22T18:19:22.100Z,100438.07139339711
2023-05-22T18:22:17.592Z,100440.87046232684
2023-05-22T18:25:13.159Z,100446.24613883381
2023-05-22T18:28:08.693Z,100443.2583164701
2023-05-22T18:31:04.356Z,100443.3733590198
2023-05-22T18:33:59.839Z,100438.01480881951
2023-05-22T18:36:57.447Z,100440.14911806707
2023-05-22T18:39:53.003Z,100444.31136901073
2023-05-22T18:42:48.484Z,100443.5491952939
2023-05-22T18:45:45.064Z,100437.77745968263
2023-05-22T18:48:40.627Z,100439.53183535072
2023-05-22T18:51:37.229Z,100449.73681088946
2023-05-22T18:54:32.764Z,100461.48316558075
2023-05-22T18:57:29.335Z,100464.27743967217
2023-05-22T19:00:24.904Z,100445.78909528728
2023-05-22T19:03:20.478Z,100444.63753656972
2023-05-22T19:06:18.025Z,100438.87534436348
2023-05-22T19:09:14.559Z,100447.16165814248
2023-05-22T19:12:12.184Z,100434.38780585788
2023-05-22T19:15:08.681Z,100427.49699256149
2023-05-22T19:18:04.338Z,100424.5083318881
2023-05-22T19:20:59.810Z,100425.84102275941
2023-05-22T19:23:55.363Z,100420.57032207421
2023-05-22T19:26:51.055Z,100410.79981455467
2023-05-22T19:29:46.490Z,100416.78841991897
2023-05-22T19:32:43.090Z,100402.95489355802
2023-05-22T19:35:39.609Z,100389.09162645625
2023-05-22T19:38:35.194Z,100376.16740696593
2023-05-22T19:41:31.705Z,100380.24637272426
2023-05-22T19:44:27.285Z,100372.97522274563
2023-05-22T19:47:24.133Z,100356.64282870665
2023-05-22T19:50:19.371Z,100366.60715569415
2023-05-22T19:53:15.937Z,100370.36314323418
2023-05-22T19:56:11.514Z,100369.12929935448
2023-05-22T19:59:07.079Z,100371.55969303541
2023-05-22T20:02:03.752Z,100378.03214879468
2023-05-22T20:05:01.193Z,100381.24250606576
2023-05-22T20:07:57.759Z,100390.13286998987
2023-05-22T20:10:56.328Z,100378.28039509234
2023-05-22T20:13:54.018Z,100363.75964224624
2023-05-22T20:16:50.552Z,100371.31640533145
2023-05-22T20:19:47.031Z,100379.3519934973
2023-05-22T20:22:42.592Z,100381.14175459545
2023-05-22T20:25:39.330Z,100379.4514947205
2023-05-22T20:28:35.745Z,100390.03231513992
2023-05-22T20:31:37.279Z,100390.4526885499
2023-05-22T20:34:34.804Z,100390.81604463833
2023-05-22T20:37:34.380Z,100395.14632902305
2023-05-22T20:40:45.874Z,100396.72623631779
2023-05-22T20:43:42.456Z,100394.31638393314
2023-05-22T20:46:39.005Z,100393.49028418069
2023-05-22T20:49:37.530Z,100388.8766608213
2023-05-22T20:52:37.221Z,100396.99134096682
2023-05-22T20:55:33.652Z,100397.04496217288
2023-05-22T20:58:29.194Z,100386.78585860919
2023-05-22T21:01:24.814Z,100388.29495236478
2023-05-22T21:04:21.334Z,100386.3763328288
2023-05-22T21:07:17.901Z,100385.18769980475
2023-05-22T21:10:24.182Z,100392.0434360993
2023-05-22T21:13:19.973Z,100390.7194181353
2023-05-22T21:16:15.531Z,100394.65804165225
2023-05-22T21:19:11.141Z,100392.07097521868
2023-05-22T21:22:07.668Z,100396.49813174382
2023-05-22T21:25:04.241Z,100399.77612914625
2023-05-22T21:28:01.891Z,100397.55641636295
2023-05-22T21:30:57.389Z,100392.5354914815
2023-05-22T21:33:52.885Z,100388.70560797185
2023-05-22T21:36:49.477Z,100384.55103067413
2023-05-22T21:39:45.055Z,100388.1135756436
2023-05-22T21:42:46.699Z,100392.23862533837
2023-05-22T21:45:42.118Z,100388.23777548443
2023-05-22T21:48:38.644Z,100389.45815781452
2023-05-22T21:51:34.224Z,100385.1748155182
2023-05-22T21:54:29.780Z,100389.7315813328
2023-05-22T21:57:25.397Z,100385.92557491848
2023-05-22T22:00:22.972Z,100393.39574951159
2023-05-22T22:03:18.641Z,100389.89108877239
2023-05-22T22:06:14.016Z,100386.81370279951
2023-05-22T22:09:09.634Z,100393.94754450701
2023-05-22T22:12:06.156Z,100388.28176201174
2023-05-22T22:15:01.729Z,100390.52966859251
2023-05-22T22:17:59.621Z,100387.38010399311
2023-05-22T22:20:55.816Z,100391.85606908705
2023-05-22T22:23:52.387Z,100391.58907241197
2023-05-22T22:26:48.962Z,100399.13214044452
2023-05-22T22:29:44.546Z,100395.41900493875
2023-05-22T22:32:41.102Z,100395.32825696572
2023-05-22T22:35:37.858Z,100392.758592006
2023-05-22T22:38:35.227Z,100388.27984791757
2023-05-22T22:41:30.738Z,100388.05649633988
2023-05-22T22:44:26.345Z,100389.20689383365
2023-05-22T22:47:21.936Z,100389.55490412153
2023-05-22T22:50:17.455Z,100382.65718093471
2023-05-22T22:53:17.021Z,100385.7973171436
2023-05-22T22:56:12.595Z,100379.95547756286
2023-05-22T22:59:08.167Z,100382.63597931867
2023-05-22T23:02:03.693Z,100381.84199844039
2023-05-22T23:05:01.320Z,100379.63321398277
2023-05-22T23:08:01.902Z,100381.45983191258
2023-05-22T23:10:57.398Z,100377.57337175528
2023-05-22T23:13:54.995Z,100374.4514803059
2023-05-22T23:16:50.497Z,100375.12998464025
2023-05-22T23:19:48.056Z,100376.24643426384
2023-05-22T23:22:43.603Z,100377.9549619799
2023-05-22T23:25:39.371Z,100379.83773878336
2023-05-22T23:28:35.729Z,100378.12902997389
2023-05-22T23:31:31.302Z,100378.59961120272
2023-05-22T23:34:27.843Z,100375.24871239804
2023-05-22T23:37:23.404Z,100374.33580281264
2023-05-22T23:40:18.991Z,100371.33238239492
2023-05-22T23:43:14.522Z,100375.60186206474
2023-05-22T23:46:13.108Z,100370.83171697198
2023-05-22T23:49:10.647Z,100375.16014977582
2023-05-22T23:52:07.207Z,100378.95797863285
2023-05-22T23:55:04.764Z,100381.99079366314
2023-05-22T23:58:00.321Z,100378.39955931468
